createdAt,value
2023-03-13T00:01:12.822Z,80.32
2023-03-13T00:03:17.312Z,80.66
2023-03-13T00:05:20.468Z,81.51
2023-03-13T00:07:23.579Z,81.43
2023-03-13T00:09:27.606Z,81.38
2023-03-13T00:11:31.100Z,81.85
2023-03-13T00:13:34.475Z,82.05
2023-03-13T00:15:37.655Z,81.06
2023-03-13T00:17:40.820Z,81.52
2023-03-13T00:19:45.501Z,81.60
2023-03-13T00:21:48.755Z,82.20
2023-03-13T00:23:52.221Z,81.08
2023-03-13T00:25:58.934Z,82.01
2023-03-13T00:28:02.046Z,82.00
2023-03-13T00:30:05.677Z,81.36
2023-03-13T00:32:09.082Z,82.22
2023-03-13T00:34:12.280Z,82.67
2023-03-13T00:36:18.223Z,81.95
2023-03-13T00:38:21.212Z,82.54
2023-03-13T00:40:24.217Z,82.35
2023-03-13T00:42:27.387Z,81.32
2023-03-13T00:44:31.858Z,82.39
2023-03-13T00:46:35.058Z,80.99
2023-03-13T00:48:38.347Z,81.40
2023-03-13T00:50:41.417Z,81.40
2023-03-13T00:52:45.812Z,82.37
2023-03-13T00:54:48.824Z,81.57
2023-03-13T00:56:51.937Z,82.48
2023-03-13T00:58:55.092Z,81.86
2023-03-13T01:00:58.168Z,82.39
2023-03-13T01:03:01.293Z,81.19
2023-03-13T01:05:04.613Z,81.91
2023-03-13T01:07:07.681Z,82.17
2023-03-13T01:09:14.443Z,81.23
2023-03-13T01:11:19.769Z,80.87
2023-03-13T01:13:23.022Z,81.67
2023-03-13T01:15:27.312Z,81.42
2023-03-13T01:17:30.648Z,81.62
2023-03-13T01:19:33.756Z,81.81
2023-03-13T01:21:36.981Z,80.58
2023-03-13T01:23:40.032Z,80.40
2023-03-13T01:25:44.567Z,80.66
2023-03-13T01:27:47.747Z,82.21
2023-03-13T01:29:50.872Z,80.48
2023-03-13T01:31:54.118Z,82.04
2023-03-13T01:33:59.048Z,80.63
2023-03-13T01:36:03.073Z,81.34
2023-03-13T01:38:06.537Z,80.95
2023-03-13T01:40:11.185Z,80.33
2023-03-13T01:42:15.597Z,81.87
2023-03-13T01:44:23.494Z,80.60
2023-03-13T01:46:28.782Z,80.31
2023-03-13T01:49:12.422Z,80.47
2023-03-13T01:51:28.814Z,80.82
2023-03-13T01:53:34.544Z,81.15
2023-03-13T01:55:39.161Z,81.54
2023-03-13T01:57:46.367Z,80.18
2023-03-13T01:59:52.899Z,80.13
2023-03-13T02:01:58.751Z,79.56
2023-03-13T02:04:02.263Z,80.20
2023-03-13T02:06:06.475Z,79.41
2023-03-13T02:08:13.308Z,81.21
2023-03-13T02:10:17.990Z,80.09
2023-03-13T02:12:23.833Z,80.07
2023-03-13T02:14:30.206Z,80.74
2023-03-13T02:16:34.187Z,79.92
2023-03-13T02:18:38.776Z,80.23
2023-03-13T02:20:42.792Z,80.98
2023-03-13T02:22:49.779Z,80.34
2023-03-13T02:24:58.903Z,80.98
2023-03-13T02:27:04.218Z,81.92
2023-03-13T02:29:18.130Z,80.28
2023-03-13T02:31:21.859Z,82.36
2023-03-13T02:33:28.018Z,81.26
2023-03-13T02:35:31.957Z,81.98
2023-03-13T02:37:35.751Z,81.61
2023-03-13T02:39:41.339Z,81.13
2023-03-13T02:41:45.148Z,81.76
2023-03-13T02:43:49.757Z,80.60
2023-03-13T02:46:04.916Z,82.02
2023-03-13T02:48:09.768Z,81.84
2023-03-13T02:50:13.991Z,81.64
2023-03-13T02:52:21.408Z,80.76
2023-03-13T02:54:26.545Z,82.05
2023-03-13T02:56:31.694Z,82.83
2023-03-13T02:58:49.216Z,83.01
2023-03-13T03:00:55.716Z,83.34
2023-03-13T03:02:59.032Z,83.58
2023-03-13T03:05:02.047Z,83.55
2023-03-13T03:07:05.322Z,82.56
2023-03-13T03:09:09.283Z,83.30
2023-03-13T03:11:13.939Z,83.33
2023-03-13T03:13:18.682Z,84.07
2023-03-13T03:15:22.682Z,84.24
2023-03-13T03:17:27.339Z,83.85
2023-03-13T03:19:31.539Z,85.16
2023-03-13T03:21:35.800Z,85.51
2023-03-13T03:23:38.869Z,84.30
2023-03-13T03:25:42.192Z,85.29
2023-03-13T03:27:45.404Z,84.85
2023-03-13T03:29:48.500Z,84.95
2023-03-13T03:31:52.332Z,84.39
2023-03-13T03:33:57.812Z,84.49
2023-03-13T03:36:01.499Z,83.86
2023-03-13T03:38:06.161Z,84.54
2023-03-13T03:40:12.115Z,85.75
2023-03-13T03:42:15.569Z,85.59
2023-03-13T03:44:18.660Z,85.08
2023-03-13T03:46:33.336Z,85.15
2023-03-13T03:48:36.651Z,85.55
2023-03-13T03:50:43.444Z,87.11
2023-03-13T03:52:46.788Z,86.26
2023-03-13T03:54:50.042Z,87.84
2023-03-13T03:56:54.084Z,87.34
2023-03-13T03:58:57.275Z,87.57
2023-03-13T04:01:09.805Z,88.88
2023-03-13T04:03:13.460Z,88.35
2023-03-13T04:05:16.598Z,88.47
2023-03-13T04:07:21.542Z,89.12
2023-03-13T04:09:25.722Z,88.88
2023-03-13T04:11:28.795Z,88.51
2023-03-13T04:13:32.489Z,88.29
2023-03-13T04:15:36.068Z,89.25
2023-03-13T04:17:39.343Z,89.70
2023-03-13T04:19:44.319Z,89.25
2023-03-13T04:21:47.968Z,89.85
2023-03-13T04:23:55.654Z,90.10
2023-03-13T04:25:59.147Z,88.66
2023-03-13T04:28:02.253Z,88.91
2023-03-13T04:30:13.806Z,89.03
2023-03-13T04:32:21.754Z,90.16
2023-03-13T04:34:43.432Z,89.42
2023-03-13T04:36:49.409Z,88.67
2023-03-13T04:39:12.202Z,89.13
2023-03-13T04:41:27.412Z,90.31
2023-03-13T04:43:53.580Z,90.62
2023-03-13T04:46:19.636Z,90.53
2023-03-13T04:48:32.595Z,89.16
2023-03-13T04:50:58.774Z,90.63
2023-03-13T04:53:14.702Z,90.61
2023-03-13T04:55:40.106Z,89.09
2023-03-13T04:58:01.312Z,90.97
2023-03-13T05:00:21.996Z,90.17
2023-03-13T05:02:44.950Z,90.44
2023-03-13T05:04:53.814Z,90.49
2023-03-13T05:07:15.292Z,93.50
2023-03-13T05:09:33.229Z,93.13
2023-03-13T05:11:58.249Z,92.85
2023-03-13T05:14:01.581Z,94.35
2023-03-13T05:16:17.188Z,93.67
2023-03-13T05:18:39.271Z,95.84
2023-03-13T05:21:05.618Z,93.88
2023-03-13T05:23:18.602Z,94.86
2023-03-13T05:25:41.987Z,96.15
2023-03-13T05:28:00.164Z,96.52
2023-03-13T05:30:19.644Z,95.50
2023-03-13T05:32:39.111Z,94.53
2023-03-13T05:35:04.413Z,96.61
2023-03-13T05:37:25.917Z,94.53
2023-03-13T05:39:38.502Z,95.11
2023-03-13T05:41:54.840Z,96.61
2023-03-13T05:44:34.444Z,95.43
2023-03-13T05:46:51.044Z,94.65
2023-03-13T05:49:18.374Z,96.84
2023-03-13T05:51:39.811Z,96.45
2023-03-13T05:54:01.402Z,96.20
2023-03-13T05:56:42.701Z,96.07
2023-03-13T05:59:00.373Z,96.63
2023-03-13T06:01:23.526Z,97.26
2023-03-13T06:03:33.478Z,97.35
2023-03-13T06:05:36.794Z,96.87
2023-03-13T06:07:44.058Z,96.47
2023-03-13T06:09:47.130Z,98.33
2023-03-13T06:11:50.336Z,97.98
2023-03-13T06:13:54.925Z,97.37
2023-03-13T06:16:16.720Z,98.29
2023-03-13T06:18:23.538Z,97.23
2023-03-13T06:20:26.645Z,96.77
2023-03-13T06:22:30.829Z,96.04
2023-03-13T06:24:34.121Z,97.92
2023-03-13T06:26:37.228Z,97.79
2023-03-13T06:28:40.365Z,96.61
2023-03-13T06:30:43.885Z,96.97
2023-03-13T06:32:47.107Z,95.27
2023-03-13T06:34:52.336Z,95.89
2023-03-13T06:36:56.448Z,95.47
2023-03-13T06:38:59.762Z,95.82
2023-03-13T06:41:02.987Z,95.56
2023-03-13T06:43:06.144Z,94.90
2023-03-13T06:45:10.512Z,95.31
2023-03-13T06:47:15.488Z,94.29
2023-03-13T06:49:18.695Z,94.06
2023-03-13T06:51:23.438Z,94.70
2023-03-13T06:53:26.665Z,94.76
2023-03-13T06:55:29.704Z,94.58
2023-03-13T06:57:32.727Z,93.40
2023-03-13T06:59:35.847Z,94.94
2023-03-13T07:01:38.824Z,94.26
2023-03-13T07:03:42.459Z,93.88
2023-03-13T07:05:45.586Z,94.98
2023-03-13T07:07:50.013Z,94.83
2023-03-13T07:09:53.060Z,94.86
2023-03-13T07:11:58.227Z,94.57
2023-03-13T07:14:15.183Z,94.41
2023-03-13T07:16:19.804Z,94.80
2023-03-13T07:18:23.847Z,93.22
2023-03-13T07:20:26.913Z,94.91
2023-03-13T07:22:30.063Z,94.16
2023-03-13T07:24:34.591Z,94.48
2023-03-13T07:26:37.713Z,93.22
2023-03-13T07:28:40.785Z,93.54
2023-03-13T07:30:43.855Z,94.01
2023-03-13T07:32:47.072Z,94.04
2023-03-13T07:34:50.246Z,95.29
2023-03-13T07:36:53.234Z,94.58
2023-03-13T07:38:56.562Z,94.45
2023-03-13T07:41:01.204Z,94.99
2023-03-13T07:43:04.333Z,96.32
2023-03-13T07:45:08.860Z,97.66
2023-03-13T07:47:11.977Z,96.01
2023-03-13T07:49:15.275Z,97.15
2023-03-13T07:51:25.267Z,97.40
2023-03-13T07:53:33.659Z,96.67
2023-03-13T07:55:36.882Z,95.21
2023-03-13T07:57:41.293Z,95.94
2023-03-13T07:59:44.381Z,95.46
2023-03-13T08:01:47.600Z,94.51
2023-03-13T08:03:51.101Z,95.14
2023-03-13T08:06:05.074Z,94.35
2023-03-13T08:08:08.838Z,93.75
2023-03-13T08:10:14.856Z,93.77
2023-03-13T08:12:18.049Z,94.59
2023-03-13T08:14:22.516Z,93.78
2023-03-13T08:16:27.062Z,93.44
2023-03-13T08:18:34.646Z,94.28
2023-03-13T08:20:37.673Z,93.33
2023-03-13T08:22:40.788Z,93.55
2023-03-13T08:24:43.750Z,93.46
2023-03-13T08:26:46.799Z,92.98
2023-03-13T08:28:54.179Z,93.13
2023-03-13T08:30:58.760Z,93.68
2023-03-13T08:33:01.924Z,92.58
2023-03-13T08:35:05.399Z,92.61
2023-03-13T08:37:08.612Z,92.53
2023-03-13T08:39:13.970Z,92.58
2023-03-13T08:41:18.684Z,91.78
2023-03-13T08:43:21.770Z,91.88
2023-03-13T08:45:24.831Z,90.83
2023-03-13T08:47:29.408Z,90.51
2023-03-13T08:49:32.527Z,91.17
2023-03-13T08:51:36.011Z,90.91
2023-03-13T08:53:40.499Z,90.72
2023-03-13T08:55:43.653Z,88.77
2023-03-13T08:57:46.723Z,90.35
2023-03-13T08:59:51.440Z,87.96
2023-03-13T09:01:54.528Z,88.11
2023-03-13T09:04:03.663Z,88.91
2023-03-13T09:06:08.182Z,89.26
2023-03-13T09:08:11.226Z,88.62
2023-03-13T09:10:14.576Z,87.62
2023-03-13T09:12:29.910Z,88.44
2023-03-13T09:14:36.331Z,88.39
2023-03-13T09:16:39.737Z,89.04
2023-03-13T09:18:43.092Z,89.29
2023-03-13T09:20:48.991Z,90.04
2023-03-13T09:22:52.137Z,88.60
2023-03-13T09:24:55.121Z,89.28
2023-03-13T09:27:01.301Z,88.79
2023-03-13T09:29:04.909Z,88.76
2023-03-13T09:31:09.013Z,89.64
2023-03-13T09:33:12.222Z,89.04
2023-03-13T09:35:15.658Z,89.69
2023-03-13T09:37:20.182Z,88.84
2023-03-13T09:39:23.268Z,88.44
2023-03-13T09:41:28.931Z,88.53
2023-03-13T09:43:39.071Z,87.68
2023-03-13T09:45:44.608Z,87.68
2023-03-13T09:47:49.876Z,89.16
2023-03-13T09:49:55.314Z,88.32
2023-03-13T09:52:04.292Z,87.57
2023-03-13T09:54:10.749Z,87.33
2023-03-13T09:56:18.126Z,88.20
2023-03-13T09:58:23.455Z,87.89
2023-03-13T10:00:29.121Z,87.26
2023-03-13T10:02:33.876Z,88.05
2023-03-13T10:04:42.000Z,87.92
2023-03-13T10:06:46.084Z,87.36
2023-03-13T10:08:49.366Z,86.82
2023-03-13T10:10:57.567Z,85.41
2023-03-13T10:13:06.171Z,86.58
2023-03-13T10:15:23.762Z,85.63
2023-03-13T10:17:33.204Z,85.40
2023-03-13T10:19:38.852Z,85.38
2023-03-13T10:21:43.351Z,84.50
2023-03-13T10:23:50.392Z,84.35
2023-03-13T10:25:55.098Z,84.34
2023-03-13T10:27:58.509Z,83.28
2023-03-13T10:30:01.508Z,83.87
2023-03-13T10:32:06.917Z,83.71
2023-03-13T10:34:11.308Z,82.33
2023-03-13T10:36:15.254Z,82.16
2023-03-13T10:38:20.313Z,82.56
2023-03-13T10:40:25.331Z,82.55
2023-03-13T10:42:33.579Z,82.39
2023-03-13T10:44:36.684Z,82.77
2023-03-13T10:46:42.375Z,79.69
2023-03-13T10:48:45.528Z,78.74
2023-03-13T10:50:50.596Z,79.35
2023-03-13T10:52:54.750Z,78.78
2023-03-13T10:55:01.254Z,79.27
2023-03-13T10:57:21.048Z,79.00
2023-03-13T10:59:27.260Z,78.25
2023-03-13T11:01:32.500Z,77.61
2023-03-13T11:03:35.729Z,78.05
2023-03-13T11:05:40.156Z,78.42
2023-03-13T11:07:45.406Z,77.73
2023-03-13T11:09:59.182Z,76.93
2023-03-13T11:12:07.005Z,76.75
2023-03-13T11:14:11.130Z,76.42
2023-03-13T11:16:20.303Z,75.42
2023-03-13T11:18:27.486Z,76.88
2023-03-13T11:20:33.355Z,77.09
2023-03-13T11:22:47.194Z,74.24
2023-03-13T11:24:54.631Z,73.12
2023-03-13T11:27:05.068Z,73.81
2023-03-13T11:29:15.448Z,72.95
2023-03-13T11:31:22.987Z,74.72
2023-03-13T11:33:30.793Z,74.28
2023-03-13T11:35:39.951Z,73.16
2023-03-13T11:37:43.978Z,73.23
2023-03-13T11:39:54.295Z,73.89
2023-03-13T11:42:01.669Z,71.72
2023-03-13T11:44:32.256Z,71.08
2023-03-13T11:46:48.005Z,71.85
2023-03-13T11:49:24.388Z,72.39
2023-03-13T11:51:34.183Z,72.07
2023-03-13T11:53:47.881Z,71.10
2023-03-13T11:56:03.041Z,72.99
2023-03-13T11:58:21.218Z,72.40
2023-03-13T12:00:31.384Z,72.10
2023-03-13T12:02:38.877Z,72.68
2023-03-13T12:04:45.174Z,72.60
2023-03-13T12:06:51.980Z,71.27
2023-03-13T12:08:58.407Z,73.40
2023-03-13T12:11:07.848Z,72.73
2023-03-13T12:13:15.226Z,71.50
2023-03-13T12:15:23.222Z,72.08
2023-03-13T12:17:33.364Z,72.97
2023-03-13T12:19:42.679Z,71.62
2023-03-13T12:21:49.049Z,71.62
2023-03-13T12:23:59.573Z,71.53
2023-03-13T12:26:06.183Z,69.99
2023-03-13T12:28:24.116Z,70.46
2023-03-13T12:30:34.765Z,69.20
2023-03-13T12:32:39.872Z,70.65
2023-03-13T12:34:53.008Z,71.67
2023-03-13T12:37:01.149Z,70.80
2023-03-13T12:39:12.771Z,70.23
2023-03-13T12:41:20.738Z,70.01
2023-03-13T12:43:27.007Z,71.66
2023-03-13T12:45:30.531Z,70.25
2023-03-13T12:47:34.946Z,70.63
2023-03-13T12:49:57.315Z,68.43
2023-03-13T12:52:11.105Z,69.33
2023-03-13T12:54:34.258Z,68.17
2023-03-13T12:56:51.781Z,69.60
2023-03-13T12:58:56.765Z,67.78
2023-03-13T13:01:04.097Z,69.04
2023-03-13T13:03:20.107Z,67.30
2023-03-13T13:05:24.709Z,68.86
2023-03-13T13:07:29.650Z,68.97
2023-03-13T13:09:36.146Z,69.22
2023-03-13T13:11:49.588Z,67.34
2023-03-13T13:13:52.724Z,67.92
2023-03-13T13:16:01.334Z,68.52
2023-03-13T13:18:15.049Z,68.58
2023-03-13T13:20:47.413Z,67.41
2023-03-13T13:22:52.736Z,67.29
2023-03-13T13:24:57.379Z,66.46
2023-03-13T13:27:00.434Z,66.17
2023-03-13T13:29:41.900Z,66.71
2023-03-13T13:31:57.131Z,66.89
2023-03-13T13:34:00.372Z,66.74
2023-03-13T13:36:32.447Z,66.78
2023-03-13T13:38:40.354Z,66.67
2023-03-13T13:40:59.499Z,67.40
2023-03-13T13:43:03.266Z,67.42
2023-03-13T13:45:25.424Z,68.18
2023-03-13T13:47:32.423Z,67.79
2023-03-13T13:49:39.545Z,66.62
2023-03-13T13:51:44.376Z,66.38
2023-03-13T13:53:48.502Z,65.54
2023-03-13T13:55:51.837Z,66.37
2023-03-13T13:58:00.815Z,67.05
2023-03-13T14:00:19.636Z,66.16
2023-03-13T14:02:25.624Z,66.77
2023-03-13T14:04:30.758Z,67.10
2023-03-13T14:06:37.189Z,67.38
2023-03-13T14:08:44.998Z,65.94
2023-03-13T14:10:51.063Z,67.20
2023-03-13T14:12:55.461Z,66.77
2023-03-13T14:15:15.567Z,65.69
2023-03-13T14:17:18.724Z,66.11
2023-03-13T14:19:24.217Z,67.17
2023-03-13T14:21:27.933Z,66.41
2023-03-13T14:23:40.090Z,65.52
2023-03-13T14:25:46.677Z,65.72
2023-03-13T14:27:51.101Z,65.38
2023-03-13T14:30:03.706Z,66.96
2023-03-13T14:32:07.221Z,66.77
2023-03-13T14:34:12.768Z,66.57
2023-03-13T14:36:15.857Z,67.25
2023-03-13T14:38:21.189Z,67.71
2023-03-13T14:40:29.224Z,68.73
2023-03-13T14:42:39.962Z,66.30
2023-03-13T14:44:45.790Z,66.87
2023-03-13T14:46:49.023Z,66.48
2023-03-13T14:48:55.653Z,66.63
2023-03-13T14:51:14.812Z,67.10
2023-03-13T14:53:20.847Z,67.44
2023-03-13T14:55:33.726Z,66.12
2023-03-13T14:57:38.280Z,65.54
2023-03-13T14:59:43.113Z,64.86
2023-03-13T15:01:47.150Z,66.01
2023-03-13T15:03:50.381Z,65.25
2023-03-13T15:06:07.403Z,64.48
2023-03-13T15:08:15.138Z,66.17
2023-03-13T15:10:22.270Z,64.89
2023-03-13T15:12:25.572Z,64.73
2023-03-13T15:14:38.869Z,65.33
2023-03-13T15:16:42.136Z,64.56
2023-03-13T15:18:45.384Z,64.88
2023-03-13T15:20:52.111Z,65.09
2023-03-13T15:22:55.170Z,62.87
2023-03-13T15:25:07.517Z,64.22
2023-03-13T15:27:19.105Z,65.28
2023-03-13T15:29:22.345Z,64.23
2023-03-13T15:31:29.431Z,64.46
2023-03-13T15:33:32.722Z,65.09
2023-03-13T15:35:35.903Z,63.88
2023-03-13T15:37:39.090Z,64.84
2023-03-13T15:39:42.198Z,63.93
2023-03-13T15:41:45.222Z,63.10
2023-03-13T15:43:52.441Z,63.83
2023-03-13T15:45:55.699Z,62.89
2023-03-13T15:48:00.263Z,63.15
2023-03-13T15:50:03.542Z,64.28
2023-03-13T15:52:17.558Z,62.53
2023-03-13T15:54:20.960Z,63.11
2023-03-13T15:56:24.749Z,64.07
2023-03-13T15:58:28.712Z,65.27
2023-03-13T16:00:31.843Z,63.49
2023-03-13T16:02:34.954Z,63.73
2023-03-13T16:04:40.007Z,64.43
2023-03-13T16:06:43.152Z,65.10
2023-03-13T16:08:46.300Z,65.97
2023-03-13T16:10:49.975Z,64.60
2023-03-13T16:12:53.128Z,65.53
2023-03-13T16:14:56.336Z,65.17
2023-03-13T16:16:59.642Z,65.46
2023-03-13T16:19:04.295Z,64.34
2023-03-13T16:21:10.491Z,66.83
2023-03-13T16:23:13.512Z,65.41
2023-03-13T16:25:16.738Z,65.91
2023-03-13T16:27:21.033Z,66.64
2023-03-13T16:29:24.248Z,66.37
2023-03-13T16:31:28.715Z,66.14
2023-03-13T16:33:31.903Z,65.04
2023-03-13T16:35:35.595Z,65.67
2023-03-13T16:37:40.384Z,65.26
2023-03-13T16:39:44.062Z,65.37
2023-03-13T16:41:47.128Z,67.39
2023-03-13T16:43:50.650Z,67.65
2023-03-13T16:45:53.969Z,66.02
2023-03-13T16:47:57.097Z,67.40
2023-03-13T16:50:00.129Z,68.09
2023-03-13T16:52:03.307Z,68.26
2023-03-13T16:54:08.427Z,68.30
2023-03-13T16:56:20.580Z,67.02
2023-03-13T16:58:23.721Z,66.74
2023-03-13T17:00:28.920Z,67.89
2023-03-13T17:02:32.071Z,66.73
2023-03-13T17:04:35.285Z,67.74
2023-03-13T17:06:41.399Z,66.77
2023-03-13T17:08:44.521Z,66.58
2023-03-13T17:10:49.046Z,67.46
2023-03-13T17:12:52.282Z,66.82
2023-03-13T17:14:55.371Z,67.16
2023-03-13T17:16:58.485Z,65.84
2023-03-13T17:19:02.492Z,67.19
2023-03-13T17:21:06.284Z,67.07
2023-03-13T17:23:10.949Z,67.82
2023-03-13T17:25:14.177Z,67.21
2023-03-13T17:27:19.328Z,66.84
2023-03-13T17:29:23.804Z,67.00
2023-03-13T17:31:28.677Z,67.41
2023-03-13T17:33:31.933Z,68.20
2023-03-13T17:35:34.989Z,67.69
2023-03-13T17:37:38.082Z,68.45
2023-03-13T17:39:41.408Z,67.68
2023-03-13T17:41:44.520Z,68.98
2023-03-13T17:43:49.136Z,68.46
2023-03-13T17:45:54.509Z,69.55
2023-03-13T17:47:58.258Z,69.27
2023-03-13T17:50:01.466Z,68.59
2023-03-13T17:52:04.781Z,69.73
2023-03-13T17:54:08.368Z,69.36
2023-03-13T17:56:16.757Z,70.04
2023-03-13T17:58:19.874Z,70.18
2023-03-13T18:00:30.232Z,69.49
2023-03-13T18:02:33.440Z,70.44
2023-03-13T18:04:36.552Z,70.19
2023-03-13T18:06:42.425Z,70.20
2023-03-13T18:08:45.654Z,69.46
2023-03-13T18:10:48.715Z,70.32
2023-03-13T18:12:52.486Z,70.47
2023-03-13T18:14:55.496Z,70.11
2023-03-13T18:17:01.168Z,71.06
2023-03-13T18:19:04.734Z,70.04
2023-03-13T18:21:07.967Z,71.66
2023-03-13T18:23:11.093Z,71.12
2023-03-13T18:25:14.568Z,71.09
2023-03-13T18:27:18.984Z,71.13
2023-03-13T18:29:26.505Z,71.24
2023-03-13T18:31:30.588Z,71.54
2023-03-13T18:33:35.212Z,71.99
2023-03-13T18:35:38.345Z,72.98
2023-03-13T18:37:42.743Z,73.45
2023-03-13T18:39:45.945Z,73.79
2023-03-13T18:41:50.219Z,75.12
2023-03-13T18:43:53.567Z,76.35
2023-03-13T18:45:56.833Z,77.20
2023-03-13T18:47:59.984Z,79.43
2023-03-13T18:50:04.481Z,81.28
2023-03-13T18:52:08.042Z,85.64
2023-03-13T18:54:11.478Z,88.68
2023-03-13T18:56:19.938Z,89.38
2023-03-13T18:58:23.037Z,91.10
2023-03-13T19:00:27.903Z,90.68
2023-03-13T19:02:31.328Z,92.78
2023-03-13T19:04:34.612Z,92.94
2023-03-13T19:06:39.066Z,93.80
2023-03-13T19:08:42.189Z,95.12
2023-03-13T19:10:45.331Z,95.75
2023-03-13T19:12:48.689Z,96.95
2023-03-13T19:14:51.797Z,97.97
2023-03-13T19:16:56.452Z,98.68
2023-03-13T19:18:59.650Z,96.70
2023-03-13T19:21:02.707Z,96.56
2023-03-13T19:23:07.141Z,97.79
2023-03-13T19:25:11.444Z,98.21
2023-03-13T19:27:17.065Z,98.00
2023-03-13T19:29:22.469Z,99.52
2023-03-13T19:31:25.946Z,98.53
2023-03-13T19:33:29.269Z,100.00
2023-03-13T19:35:32.382Z,99.56
2023-03-13T19:37:35.678Z,100.00
2023-03-13T19:39:40.363Z,100.00
2023-03-13T19:41:43.666Z,100.00
2023-03-13T19:43:47.902Z,100.00
2023-03-13T19:45:51.438Z,100.00
2023-03-13T19:47:54.612Z,100.00
2023-03-13T19:49:59.008Z,100.00
2023-03-13T19:52:02.331Z,100.00
2023-03-13T19:54:05.867Z,100.00
2023-03-13T19:56:16.756Z,100.00
2023-03-13T19:58:19.851Z,100.00
2023-03-13T20:00:24.694Z,100.00
2023-03-13T20:02:27.949Z,100.00
2023-03-13T20:04:32.225Z,100.00
2023-03-13T20:06:35.975Z,100.00
2023-03-13T20:08:39.185Z,100.00
2023-03-13T20:10:42.315Z,100.00
2023-03-13T20:12:46.821Z,100.00
2023-03-13T20:14:49.839Z,100.00
2023-03-13T20:16:52.923Z,100.00
2023-03-13T20:18:56.398Z,100.00
2023-03-13T20:20:59.658Z,100.00
2023-03-13T20:23:02.775Z,100.00
2023-03-13T20:25:06.476Z,100.00
2023-03-13T20:27:09.639Z,100.00
2023-03-13T20:29:14.176Z,100.00
2023-03-13T20:31:18.424Z,100.00
2023-03-13T20:33:21.829Z,100.00
2023-03-13T20:35:25.130Z,100.00
2023-03-13T20:37:28.336Z,99.66
2023-03-13T20:39:31.890Z,98.48
2023-03-13T20:41:35.256Z,97.92
2023-03-13T20:43:39.501Z,98.64
2023-03-13T20:45:44.197Z,99.36
2023-03-13T20:47:47.417Z,100.00
2023-03-13T20:49:50.573Z,99.13
2023-03-13T20:51:53.799Z,99.99
2023-03-13T20:53:57.060Z,100.00
2023-03-13T20:56:00.182Z,100.00
2023-03-13T20:58:03.158Z,100.00
2023-03-13T21:00:07.547Z,100.00
2023-03-13T21:02:12.117Z,100.00
2023-03-13T21:04:15.297Z,100.00
2023-03-13T21:06:19.569Z,100.00
2023-03-13T21:08:22.757Z,100.00
2023-03-13T21:10:25.846Z,100.00
2023-03-13T21:12:29.167Z,100.00
2023-03-13T21:14:33.437Z,100.00
2023-03-13T21:16:36.599Z,100.00
2023-03-13T21:18:41.255Z,100.00
2023-03-13T21:20:44.370Z,100.00
2023-03-13T21:22:47.568Z,100.00
2023-03-13T21:24:50.935Z,99.29
2023-03-13T21:26:55.200Z,100.00
2023-03-13T21:28:58.848Z,100.00
2023-03-13T21:31:09.353Z,100.00
2023-03-13T21:33:12.805Z,100.00
2023-03-13T21:35:17.923Z,100.00
2023-03-13T21:37:21.066Z,100.00
2023-03-13T21:39:24.310Z,100.00
2023-03-13T21:41:27.625Z,100.00
2023-03-13T21:43:30.965Z,100.00
2023-03-13T21:45:34.838Z,100.00
2023-03-13T21:47:37.989Z,100.00
2023-03-13T21:49:41.192Z,100.00
2023-03-13T21:51:45.973Z,100.00
2023-03-13T21:53:49.219Z,100.00
2023-03-13T21:55:52.990Z,100.00
2023-03-13T21:57:56.295Z,100.00
2023-03-13T21:59:59.830Z,100.00
2023-03-13T22:02:03.065Z,100.00
2023-03-13T22:04:06.335Z,100.00
2023-03-13T22:06:13.482Z,100.00
2023-03-13T22:08:19.469Z,100.00
2023-03-13T22:10:22.697Z,100.00
2023-03-13T22:12:25.999Z,100.00
2023-03-13T22:14:29.065Z,100.00
2023-03-13T22:16:32.195Z,100.00
2023-03-13T22:18:35.372Z,100.00
2023-03-13T22:20:38.886Z,100.00
2023-03-13T22:22:43.154Z,100.00
2023-03-13T22:24:47.630Z,100.00
2023-03-13T22:26:50.689Z,100.00
2023-03-13T22:28:53.813Z,100.00
2023-03-13T22:30:56.940Z,100.00
2023-03-13T22:33:00.110Z,100.00
2023-03-13T22:35:03.322Z,100.00
2023-03-13T22:37:06.456Z,100.00
2023-03-13T22:39:09.670Z,100.00
2023-03-13T22:41:15.342Z,100.00
2023-03-13T22:43:18.389Z,100.00
2023-03-13T22:45:22.410Z,100.00
2023-03-13T22:47:25.932Z,100.00
2023-03-13T22:49:29.263Z,100.00
2023-03-13T22:51:32.389Z,100.00
2023-03-13T22:53:36.198Z,100.00
2023-03-13T22:55:39.310Z,100.00
2023-03-13T22:57:43.745Z,100.00
2023-03-13T22:59:46.856Z,100.00
2023-03-13T23:01:49.954Z,100.00
2023-03-13T23:03:53.185Z,100.00
2023-03-13T23:05:56.356Z,100.00
2023-03-13T23:07:59.335Z,100.00
2023-03-13T23:10:02.452Z,100.00
2023-03-13T23:12:05.809Z,100.00
2023-03-13T23:14:10.275Z,100.00
2023-03-13T23:16:14.801Z,100.00
2023-03-13T23:18:17.859Z,100.00
2023-03-13T23:20:21.230Z,100.00
2023-03-13T23:22:28.965Z,100.00
2023-03-13T23:24:32.006Z,100.00
2023-03-13T23:26:35.114Z,100.00
2023-03-13T23:28:39.170Z,100.00
2023-03-13T23:30:43.625Z,100.00
2023-03-13T23:32:48.318Z,100.00
2023-03-13T23:34:51.367Z,100.00
2023-03-13T23:36:54.466Z,100.00
2023-03-13T23:38:58.319Z,100.00
2023-03-13T23:41:06.214Z,100.00
2023-03-13T23:43:09.251Z,100.00
2023-03-13T23:45:12.586Z,100.00
2023-03-13T23:47:16.996Z,100.00
2023-03-13T23:49:20.070Z,100.00
2023-03-13T23:51:23.846Z,100.00
2023-03-13T23:53:26.911Z,100.00
2023-03-13T23:55:30.151Z,100.00
2023-03-13T23:57:33.225Z,100.00
2023-03-13T23:59:36.286Z,100.00
